Time;durP1;ratioP1;P1;durP2;ratioP2;P2;SDS_P1;SDS_P2;PMS_P1;PMS_P2;Temp;Humidity;BMP_temperature;BMP_pressure;BME280_temperature;BME280_humidity;BME280_pressure;Samples;Min_cycle;Max_cycle;Signal;HPM_P1;HPM_P2
2022/11/19 00:00:33;;;;;;;4.28;2.10;;;16.80;80.80;;;;;;5033219;28;20028;-75
2022/11/19 00:02:59;;;;;;;4.28;2.00;;;16.80;80.70;;;;;;5050398;28;20032;-75
2022/11/19 00:05:25;;;;;;;3.65;2.13;;;16.80;80.80;;;;;;5050775;28;20118;-75
2022/11/19 00:07:51;;;;;;;4.00;2.15;;;16.80;80.80;;;;;;5049649;28;20600;-75
2022/11/19 00:10:17;;;;;;;4.30;2.22;;;16.80;80.60;;;;;;5033056;28;20025;-75
2022/11/19 00:12:54;;;;;;;3.50;2.20;;;16.80;80.70;;;;;;5045828;28;20036;-75
2022/11/19 00:15:21;;;;;;;2.45;1.75;;;16.80;80.80;;;;;;5046166;28;20056;-75
2022/11/19 00:17:46;;;;;;;6.13;2.10;;;16.80;80.90;;;;;;5030796;28;20029;-75
2022/11/19 00:20:13;;;;;;;2.70;1.83;;;16.80;80.80;;;;;;5031468;28;20074;-75
2022/11/19 00:22:40;;;;;;;2.83;2.17;;;16.80;80.80;;;;;;5029621;28;20022;-74
2022/11/19 00:25:06;;;;;;;5.82;2.15;;;16.80;80.90;;;;;;5029551;28;20017;-75
2022/11/19 00:27:32;;;;;;;2.08;1.65;;;16.80;80.90;;;;;;5048023;28;20021;-75
2022/11/19 00:29:58;;;;;;;3.75;2.08;;;16.80;80.90;;;;;;5031060;28;20522;-75
2022/11/19 00:32:23;;;;;;;3.20;1.55;;;16.80;80.90;;;;;;5030980;28;20030;-75
2022/11/19 00:34:49;;;;;;;4.97;2.03;;;16.80;80.90;;;;;;5045158;28;20519;-75
2022/11/19 00:37:15;;;;;;;3.10;1.88;;;16.80;80.80;;;;;;5038855;28;20033;-75
2022/11/19 00:39:40;;;;;;;4.72;1.80;;;16.90;80.80;;;;;;5030836;28;20033;-75
2022/11/19 00:42:06;;;;;;;4.35;2.15;;;16.90;80.80;;;;;;5032392;28;20079;-75
2022/11/19 00:44:31;;;;;;;4.22;1.73;;;16.90;80.90;;;;;;5048893;28;20027;-75
2022/11/19 00:46:57;;;;;;;3.80;1.50;;;16.90;81.00;;;;;;5048917;28;20036;-75
2022/11/19 00:49:23;;;;;;;4.80;1.60;;;16.90;81.00;;;;;;5048613;28;20057;-75
2022/11/19 00:51:48;;;;;;;4.68;1.98;;;16.90;81.10;;;;;;5049925;28;20100;-75
2022/11/19 00:54:14;;;;;;;4.10;1.70;;;16.90;81.10;;;;;;5032417;28;20152;-75
2022/11/19 00:56:40;;;;;;;2.38;1.40;;;16.90;81.10;;;;;;5030330;28;20040;-75
2022/11/19 00:59:05;;;;;;;4.07;1.70;;;16.90;81.20;;;;;;5028939;28;20042;-75
2022/11/19 01:01:32;;;;;;;4.82;2.45;;;16.90;81.10;;;;;;5028864;28;20049;-75
2022/11/19 01:03:58;;;;;;;3.30;2.00;;;16.90;81.00;;;;;;5029050;28;20017;-75
2022/11/19 01:06:24;;;;;;;2.92;1.77;;;16.90;81.00;;;;;;5031525;28;20427;-75
2022/11/19 01:08:50;;;;;;;3.40;1.20;;;16.90;81.00;;;;;;5040573;28;20116;-75
2022/11/19 01:11:27;;;;;;;4.80;1.80;;;16.90;81.10;;;;;;5022808;28;20026;-75
2022/11/19 01:13:53;;;;;;;4.82;1.77;;;16.90;81.10;;;;;;5039340;28;20018;-75
2022/11/19 01:16:29;;;;;;;3.10;1.40;;;16.90;81.10;;;;;;5028879;28;20408;-75
2022/11/19 01:18:55;;;;;;;3.08;1.33;;;16.90;81.10;;;;;;5031176;28;20028;-75
2022/11/19 01:21:22;;;;;;;3.65;1.70;;;16.90;81.10;;;;;;5028832;28;20096;-75
2022/11/19 01:23:48;;;;;;;2.90;1.75;;;16.90;81.10;;;;;;5040942;28;20071;-75
2022/11/19 01:26:14;;;;;;;2.50;1.55;;;16.90;81.00;;;;;;5029761;28;20037;-75
2022/11/19 01:28:40;;;;;;;2.10;1.40;;;16.90;81.00;;;;;;5020690;28;20029;-75
2022/11/19 01:31:25;;;;;;;3.45;1.42;;;16.90;81.00;;;;;;5029061;28;20030;-75
2022/11/19 01:33:51;;;;;;;2.45;1.42;;;17.00;81.00;;;;;;5046772;28;20479;-75
2022/11/19 01:36:26;;;;;;;2.25;1.65;;;17.00;81.00;;;;;;5012178;28;20028;-75
2022/11/19 01:38:53;;;;;;;3.05;1.58;;;16.90;81.10;;;;;;5034774;28;20117;-75
2022/11/19 01:41:23;;;;;;;4.47;1.25;;;16.90;81.10;;;;;;5029183;28;20045;-75
2022/11/19 01:43:50;;;;;;;4.47;1.30;;;16.90;81.10;;;;;;5028767;28;20022;-75
2022/11/19 01:46:20;;;;;;;3.15;1.70;;;16.90;81.10;;;;;;5028076;28;20446;-75
2022/11/19 01:49:08;;;;;;;3.65;1.70;;;16.90;81.10;;;;;;5030043;28;20021;-75
2022/11/19 01:51:38;;;;;;;1.67;1.27;;;17.00;81.00;;;;;;5048965;28;20515;-75
2022/11/19 01:54:25;;;;;;;4.70;1.80;;;17.00;80.90;;;;;;5032325;28;20044;-75
2022/11/19 01:56:53;;;;;;;3.75;1.40;;;17.00;81.00;;;;;;5046701;28;20044;-76
2022/11/19 01:59:19;;;;;;;1.55;1.10;;;17.10;81.20;;;;;;5032145;28;20056;-75
2022/11/19 02:01:45;;;;;;;2.17;1.40;;;17.00;81.10;;;;;;5031911;28;20500;-75
2022/11/19 02:04:11;;;;;;;3.80;1.67;;;17.00;81.10;;;;;;5033296;28;20184;-75
2022/11/19 02:06:37;;;;;;;3.78;1.55;;;17.00;81.20;;;;;;5032067;28;20018;-75
2022/11/19 02:09:02;;;;;;;5.40;1.70;;;17.00;81.30;;;;;;5032957;28;20033;-75
2022/11/19 02:11:40;;;;;;;12.05;1.45;;;16.90;81.30;;;;;;5031905;28;20028;-75
2022/11/19 02:14:23;;;;;;;3.08;1.25;;;16.90;81.30;;;;;;5032897;28;20029;-74
2022/11/19 02:17:05;;;;;;;3.30;1.55;;;16.90;81.30;;;;;;5052644;28;20120;-75
2022/11/19 02:19:43;;;;;;;3.78;1.55;;;16.90;81.30;;;;;;5049420;28;20017;-75
2022/11/19 02:22:40;;;;;;;3.17;1.30;;;16.90;81.40;;;;;;5049637;28;20108;-75
2022/11/19 02:25:19;;;;;;;2.60;1.48;;;16.90;81.40;;;;;;5032651;28;20048;-75
2022/11/19 02:27:48;;;;;;;2.85;0.98;;;16.90;81.40;;;;;;5036541;28;20099;-75
2022/11/19 02:30:16;;;;;;;2.58;1.63;;;16.90;81.50;;;;;;5034103;28;20047;-74
2022/11/19 02:33:08;;;;;;;2.53;1.35;;;16.90;81.50;;;;;;5033861;28;20056;-75
2022/11/19 02:35:48;;;;;;;3.95;1.38;;;16.90;81.50;;;;;;5053945;28;20037;-75
2022/11/19 02:38:28;;;;;;;2.25;1.17;;;16.90;81.60;;;;;;5034005;28;20040;-75
2022/11/19 02:41:32;;;;;;;5.70;1.27;;;16.90;81.50;;;;;;5017353;28;20075;-75
2022/11/19 02:43:51;;;;;;;6.55;1.52;;;16.80;81.50;;;;;;5033626;28;20029;-75
2022/11/19 02:46:36;;;;;;;3.75;1.30;;;16.80;81.60;;;;;;5033888;28;20102;-75
2022/11/19 02:49:02;;;;;;;3.15;1.70;;;16.80;81.60;;;;;;5033709;28;20069;-75
2022/11/19 02:51:27;;;;;;;1.50;1.30;;;16.80;81.60;;;;;;5017276;28;20036;-75
2022/11/19 02:53:54;;;;;;;2.67;1.65;;;16.80;81.60;;;;;;5033653;28;20080;-75
2022/11/19 02:56:51;;;;;;;5.18;1.30;;;16.80;81.60;;;;;;5033545;28;20021;-75
2022/11/19 03:04:57;;;;;;;5.07;1.50;;;16.80;81.70;;;;;;5033506;28;20044;-75
2022/11/19 03:07:23;;;;;;;2.85;1.20;;;16.80;81.70;;;;;;5033426;28;20021;-75
2022/11/19 03:09:56;;;;;;;3.35;1.15;;;16.80;81.70;;;;;;5034838;28;20036;-75
2022/11/19 03:12:30;;;;;;;4.05;1.27;;;16.80;81.70;;;;;;5033268;28;20033;-75
2022/11/19 03:17:59;;;;;;;1.58;0.93;;;16.80;81.70;;;;;;5033763;28;20041;-75
2022/11/19 03:20:26;;;;;;;4.57;1.10;;;16.80;81.80;;;;;;5032603;28;20415;-75
2022/11/19 03:22:58;;;;;;;4.10;1.50;;;16.80;81.80;;;;;;5033027;28;20022;-75
2022/11/19 03:25:43;;;;;;;2.70;0.95;;;16.80;81.90;;;;;;5033019;28;20036;-75
2022/11/19 03:28:12;;;;;;;2.33;1.30;;;16.80;81.80;;;;;;5050000;28;20035;-75
2022/11/19 03:30:38;;;;;;;3.95;1.17;;;16.80;81.80;;;;;;5053051;28;20024;-75
2022/11/19 03:33:21;;;;;;;2.13;1.00;;;16.80;81.90;;;;;;5036304;28;20029;-75
2022/11/19 03:35:48;;;;;;;;;;;16.80;82.00;;;;;;5038957;28;20020;-75
2022/11/19 03:38:20;;;;;;;2.10;1.02;;;16.80;81.90;;;;;;5052647;28;19916;-75
2022/11/19 03:40:46;;;;;;;1.70;1.13;;;16.70;82.00;;;;;;5052739;28;20025;-75
2022/11/19 03:43:12;;;;;;;5.40;1.40;;;16.80;82.00;;;;;;5036069;28;20048;-75
2022/11/19 03:45:42;;;;;;;3.58;1.00;;;16.70;82.00;;;;;;5036382;28;20151;-75
2022/11/19 03:48:08;;;;;;;3.78;1.50;;;16.80;82.00;;;;;;5035908;28;20113;-75
2022/11/19 03:50:41;;;;;;;2.33;1.27;;;16.70;82.00;;;;;;5052860;28;20105;-75
2022/11/19 03:53:07;;;;;;;3.35;0.98;;;16.70;82.00;;;;;;5036436;28;20021;-75
2022/11/19 03:55:36;;;;;;;5.85;1.17;;;16.70;82.00;;;;;;5035716;28;20104;-75
2022/11/19 03:58:06;;;;;;;2.10;1.20;;;16.80;82.00;;;;;;5035905;28;20040;-75
2022/11/19 04:00:31;;;;;;;1.48;0.98;;;16.70;82.10;;;;;;5036092;28;20021;-75
2022/11/19 04:02:58;;;;;;;3.67;1.13;;;16.70;82.10;;;;;;5053200;28;20021;-75
2022/11/19 04:05:23;;;;;;;3.28;1.17;;;16.70;82.10;;;;;;5036062;28;20051;-75
2022/11/19 04:07:49;;;;;;;3.10;1.10;;;16.70;82.10;;;;;;5052525;28;20104;-75
2022/11/19 04:10:15;;;;;;;2.40;1.20;;;16.70;82.10;;;;;;5053218;28;20514;-75
2022/11/19 04:12:40;;;;;;;2.35;1.38;;;16.70;82.10;;;;;;5035211;28;20490;-75
2022/11/19 04:15:08;;;;;;;3.92;1.23;;;16.70;82.10;;;;;;5053389;28;20033;-75
2022/11/19 04:17:34;;;;;;;2.55;1.35;;;16.60;82.10;;;;;;5051537;28;20021;-75
2022/11/19 04:19:59;;;;;;;1.23;0.85;;;16.70;82.20;;;;;;5041953;28;20052;-75
2022/11/19 04:22:25;;;;;;;3.47;1.10;;;16.60;82.10;;;;;;5031974;28;20511;-75
2022/11/19 04:24:51;;;;;;;5.30;1.17;;;16.60;82.10;;;;;;5032984;28;20033;-75
2022/11/19 04:27:16;;;;;;;3.45;1.15;;;16.70;82.20;;;;;;5041972;28;20029;-75
2022/11/19 04:29:42;;;;;;;2.75;0.93;;;16.70;82.20;;;;;;5053085;28;20102;-75
2022/11/19 04:32:07;;;;;;;5.03;1.08;;;16.60;82.20;;;;;;5053066;28;20021;-75
2022/11/19 04:34:33;;;;;;;1.95;1.10;;;16.70;82.20;;;;;;5053055;28;20029;-75
2022/11/19 04:36:59;;;;;;;2.28;1.20;;;16.60;82.20;;;;;;5035255;28;20411;-75
2022/11/19 04:39:25;;;;;;;3.58;0.93;;;16.60;82.20;;;;;;5051429;28;20498;-75
2022/11/19 04:41:51;;;;;;;3.30;1.10;;;16.60;82.20;;;;;;5035257;28;20533;-75
2022/11/19 04:44:16;;;;;;;1.73;1.00;;;16.60;82.30;;;;;;5051434;28;20025;-75
2022/11/19 04:46:42;;;;;;;3.05;1.20;;;16.70;82.40;;;;;;5051807;28;20066;-75
2022/11/19 04:49:08;;;;;;;1.13;0.82;;;16.60;82.30;;;;;;5051508;28;20050;-75
2022/11/19 04:51:33;;;;;;;2.05;1.15;;;16.60;82.30;;;;;;5035160;28;20108;-75
2022/11/19 04:53:59;;;;;;;3.10;0.90;;;16.60;82.40;;;;;;5051215;28;20108;-75
2022/11/19 04:56:24;;;;;;;4.88;1.58;;;16.60;82.40;;;;;;5051581;28;20063;-75
2022/11/19 04:58:50;;;;;;;1.65;1.00;;;16.60;82.40;;;;;;5052451;28;20128;-75
2022/11/19 05:01:16;;;;;;;1.33;1.05;;;16.60;82.50;;;;;;5052711;28;20402;-75
2022/11/19 05:03:41;;;;;;;1.45;0.90;;;16.60;82.50;;;;;;5051526;28;20528;-75
2022/11/19 05:06:07;;;;;;;1.23;0.85;;;16.60;82.50;;;;;;5052542;28;20025;-75
2022/11/19 05:08:32;;;;;;;2.88;0.88;;;16.60;82.50;;;;;;5034873;28;20025;-75
2022/11/19 05:10:58;;;;;;;2.55;1.02;;;16.60;82.60;;;;;;5051455;28;20029;-75
2022/11/19 05:13:24;;;;;;;4.35;0.90;;;16.60;82.50;;;;;;5051385;28;20496;-75
2022/11/19 05:15:49;;;;;;;2.22;1.10;;;16.60;82.50;;;;;;5052771;28;20030;-75
2022/11/19 05:18:15;;;;;;;1.38;0.85;;;16.60;82.50;;;;;;5051178;28;20029;-75
2022/11/19 05:20:40;;;;;;;0.80;0.80;;;16.60;82.60;;;;;;5035633;28;20072;-76
2022/11/19 05:23:06;;;;;;;1.98;0.95;;;16.60;82.60;;;;;;5032527;28;20037;-75
2022/11/19 05:25:32;;;;;;;4.55;0.90;;;16.60;82.50;;;;;;5018822;28;20014;-75
2022/11/19 05:27:57;;;;;;;1.23;1.00;;;16.60;82.50;;;;;;5036783;28;20029;-75
2022/11/19 05:30:23;;;;;;;0.98;0.80;;;16.60;82.60;;;;;;5018736;28;20022;-75
2022/11/19 05:32:49;;;;;;;3.17;1.17;;;16.60;82.60;;;;;;5035332;28;20036;-75
2022/11/19 05:35:14;;;;;;;1.20;0.90;;;16.60;82.60;;;;;;5035260;28;20100;-75
2022/11/19 05:37:40;;;;;;;1.80;1.35;;;16.60;82.60;;;;;;5035342;28;20029;-75
2022/11/19 05:40:06;;;;;;;2.13;1.00;;;16.60;82.60;;;;;;5036383;28;20017;-75
2022/11/19 05:42:32;;;;;;;1.25;0.90;;;16.60;82.60;;;;;;5036498;28;20028;-75
2022/11/19 05:44:57;;;;;;;1.50;1.00;;;16.60;82.60;;;;;;5034777;28;20018;-75
2022/11/19 05:47:23;;;;;;;2.20;0.90;;;16.60;82.60;;;;;;5035269;28;20041;-75
2022/11/19 05:49:49;;;;;;;2.85;1.15;;;16.60;82.60;;;;;;5036561;28;20036;-75
2022/11/19 05:52:14;;;;;;;2.38;0.90;;;16.60;82.60;;;;;;5035827;28;20037;-75
2022/11/19 05:54:40;;;;;;;1.10;0.82;;;16.60;82.60;;;;;;5034991;28;20025;-75
2022/11/19 05:57:05;;;;;;;2.60;0.82;;;16.60;82.60;;;;;;5035929;28;20041;-75
2022/11/19 05:59:31;;;;;;;0.93;0.90;;;16.60;82.70;;;;;;5034658;28;20443;-75
2022/11/19 06:01:57;;;;;;;2.35;1.08;;;16.60;82.60;;;;;;5034893;28;20017;-75
2022/11/19 06:04:23;;;;;;;1.75;0.93;;;16.50;82.60;;;;;;5034596;28;20104;-75
2022/11/19 06:06:48;;;;;;;2.47;0.77;;;16.60;82.70;;;;;;5035689;28;20053;-75
2022/11/19 06:09:14;;;;;;;1.23;0.88;;;16.60;82.60;;;;;;5035754;28;20057;-75
2022/11/19 06:11:51;;;;;;;1.10;0.70;;;16.60;82.70;;;;;;5035850;28;20017;-75
2022/11/19 06:14:23;;;;;;;2.50;0.82;;;16.60;82.70;;;;;;5035932;28;20487;-75
2022/11/19 06:16:54;;;;;;;1.20;1.02;;;16.60;82.70;;;;;;5018865;28;20028;-75
2022/11/19 06:19:20;;;;;;;0.93;0.60;;;16.50;82.60;;;;;;5035297;28;20072;-75
2022/11/19 06:21:45;;;;;;;0.90;0.60;;;16.60;82.60;;;;;;5017665;28;20046;-75
2022/11/19 06:24:11;;;;;;;0.98;0.70;;;16.60;82.70;;;;;;5034036;28;20026;-75
2022/11/19 06:26:37;;;;;;;3.45;0.90;;;16.60;82.70;;;;;;5038959;28;20490;-75
2022/11/19 06:29:03;;;;;;;0.98;0.73;;;16.50;82.60;;;;;;5037548;28;20025;-75
2022/11/19 06:31:28;;;;;;;1.23;0.90;;;16.50;82.60;;;;;;5053979;28;20061;-75
2022/11/19 06:33:54;;;;;;;1.00;0.88;;;16.50;82.60;;;;;;5054170;28;20040;-75
2022/11/19 06:36:20;;;;;;;2.03;0.90;;;16.50;82.60;;;;;;5054350;28;20471;-75
2022/11/19 06:38:46;;;;;;;1.08;0.70;;;16.50;82.60;;;;;;5037355;28;20104;-75
2022/11/19 06:41:11;;;;;;;4.25;1.05;;;16.50;82.60;;;;;;5055144;28;20100;-75
2022/11/19 06:43:37;;;;;;;0.73;0.57;;;16.50;82.70;;;;;;5053856;28;20482;-75
2022/11/19 06:46:03;;;;;;;2.85;0.80;;;16.50;82.50;;;;;;5037246;28;20025;-75
2022/11/19 06:48:28;;;;;;;1.15;0.85;;;16.50;82.60;;;;;;5054941;28;20029;-75
2022/11/19 06:50:54;;;;;;;3.80;0.80;;;16.50;82.60;;;;;;5054882;28;20463;-75
2022/11/19 06:53:20;;;;;;;2.13;0.90;;;16.50;82.70;;;;;;5053648;28;20029;-75
2022/11/19 06:55:45;;;;;;;3.45;0.60;;;16.50;82.70;;;;;;5054825;28;20498;-75
2022/11/19 06:58:12;;;;;;;2.17;0.80;;;16.60;82.70;;;;;;5054527;28;20051;-76
2022/11/19 07:00:37;;;;;;;1.67;0.80;;;16.50;82.70;;;;;;5053826;28;20071;-75
2022/11/19 07:03:03;;;;;;;2.92;1.00;;;16.50;82.80;;;;;;5053596;28;20522;-75
2022/11/19 07:05:29;;;;;;;0.90;0.70;;;16.50;82.80;;;;;;5054353;28;20049;-75
2022/11/19 07:07:54;;;;;;;1.42;0.95;;;16.50;82.80;;;;;;5053460;28;20392;-75
2022/11/19 07:10:20;;;;;;;2.80;0.88;;;16.50;82.80;;;;;;5054264;28;20032;-75
2022/11/19 07:12:45;;;;;;;2.33;0.98;;;16.50;82.90;;;;;;5054309;28;20068;-75
2022/11/19 07:15:11;;;;;;;4.15;0.80;;;16.50;82.90;;;;;;5054517;28;20033;-75
2022/11/19 07:17:37;;;;;;;0.98;0.65;;;16.50;82.80;;;;;;5052994;28;20084;-75
2022/11/19 07:20:04;;;;;;;1.27;0.82;;;16.50;82.80;;;;;;5026063;28;20028;-76
2022/11/19 07:22:29;;;;;;;2.22;0.90;;;16.50;82.90;;;;;;5033003;28;20108;-75
2022/11/19 07:24:55;;;;;;;0.98;0.75;;;16.50;82.80;;;;;;5033006;28;20065;-75
2022/11/19 07:27:20;;;;;;;1.23;0.90;;;16.50;82.80;;;;;;5044696;28;20025;-75
2022/11/19 07:29:46;;;;;;;0.73;0.65;;;16.50;82.90;;;;;;5041111;28;20028;-75
2022/11/19 07:32:12;;;;;;;1.20;0.80;;;16.50;82.90;;;;;;5052831;28;20108;-75
2022/11/19 07:34:37;;;;;;;2.47;0.60;;;16.50;82.90;;;;;;5052279;28;20495;-75
2022/11/19 07:37:03;;;;;;;2.15;0.88;;;16.50;82.90;;;;;;5053825;28;20032;-75
2022/11/19 07:39:29;;;;;;;1.65;0.80;;;16.50;82.90;;;;;;5052805;28;20016;-75
2022/11/19 07:44:38;;;;;;;1.33;0.60;;;16.50;83.00;;;;;;5053786;28;20048;-75
2022/11/19 07:47:06;;;;;;;1.27;0.65;;;16.50;83.00;;;;;;5051552;28;20029;-75
2022/11/19 07:49:32;;;;;;;2.00;0.75;;;16.50;83.00;;;;;;5052328;28;20024;-75
2022/11/19 07:51:57;;;;;;;1.92;0.70;;;16.50;83.00;;;;;;5036018;28;20025;-75
2022/11/19 07:54:23;;;;;;;2.88;0.82;;;16.50;82.90;;;;;;5052135;28;20390;-75
2022/11/19 07:56:49;;;;;;;1.77;0.80;;;16.50;82.90;;;;;;5052479;28;20032;-75
2022/11/19 07:59:15;;;;;;;0.77;0.70;;;16.50;82.90;;;;;;5052364;28;20041;-75
2022/11/19 08:01:40;;;;;;;3.25;0.80;;;16.50;83.00;;;;;;5052458;28;20048;-75
2022/11/19 08:04:06;;;;;;;3.30;0.70;;;16.50;82.90;;;;;;5052204;28;20017;-76
2022/11/19 08:06:35;;;;;;;2.05;0.63;;;16.50;82.00;;;;;;5052194;28;20071;-75
2022/11/19 08:09:01;;;;;;;1.95;0.60;;;16.50;80.40;;;;;;5051616;28;20021;-76
2022/11/19 08:11:27;;;;;;;7.38;0.70;;;16.40;80.50;;;;;;5018948;28;20104;-73
2022/11/19 08:13:52;;;;;;;1.25;0.60;;;16.40;80.70;;;;;;5035705;28;20100;-74
2022/11/19 08:19:06;;;;;;;1.25;0.60;;;16.30;80.70;;;;;;5053092;28;20044;-73
2022/11/19 08:21:31;;;;;;;1.05;0.80;;;16.30;80.60;;;;;;5035837;28;20032;-73
2022/11/19 08:23:57;;;;;;;1.02;0.70;;;16.30;80.50;;;;;;5053152;28;20391;-76
2022/11/19 08:26:23;;;;;;;2.13;0.70;;;16.30;80.70;;;;;;5050251;28;21744;-73
2022/11/19 08:28:48;;;;;;;1.33;0.38;;;16.30;80.70;;;;;;5015615;28;20397;-73
2022/11/19 08:31:14;;;;;;;2.83;0.68;;;16.20;80.70;;;;;;5031820;28;20036;-74
2022/11/19 08:33:39;;;;;;;0.80;0.60;;;16.20;80.60;;;;;;5033276;28;20026;-74
2022/11/19 08:36:05;;;;;;;0.88;0.50;;;16.20;80.60;;;;;;5032009;28;20092;-74
2022/11/19 08:38:31;;;;;;;1.50;0.60;;;16.20;80.60;;;;;;5031844;28;20029;-74
2022/11/19 08:43:40;;;;;;;2.28;0.55;;;16.20;80.60;;;;;;5033028;28;20507;-77
2022/11/19 08:46:06;;;;;;;0.73;0.40;;;16.10;80.50;;;;;;5031545;28;20038;-79
2022/11/19 08:48:32;;;;;;;2.40;0.90;;;16.20;80.70;;;;;;5033032;28;20026;-76
2022/11/19 08:50:58;;;;;;;1.95;0.60;;;16.20;80.60;;;;;;5032813;28;20033;-78
2022/11/19 08:53:23;;;;;;;0.60;0.60;;;16.20;80.60;;;;;;5031740;28;20439;-74
2022/11/19 08:55:50;;;;;;;3.28;0.90;;;16.20;80.60;;;;;;5031743;28;20032;-74
2022/11/19 08:58:15;;;;;;;4.03;0.75;;;16.20;80.60;;;;;;5032200;28;20077;-77
2022/11/19 09:00:41;;;;;;;1.45;0.50;;;16.20;80.60;;;;;;5032765;28;20056;-77
2022/11/19 09:03:07;;;;;;;0.82;0.60;;;16.10;80.50;;;;;;5031836;28;20049;-77
2022/11/19 09:05:32;;;;;;;0.70;0.52;;;16.10;80.60;;;;;;5046336;28;20471;-77
2022/11/19 09:07:58;;;;;;;1.90;0.60;;;16.10;80.50;;;;;;5050932;28;20031;-77
2022/11/19 09:10:24;;;;;;;0.73;0.50;;;16.10;80.60;;;;;;5046170;28;20033;-77
2022/11/19 09:12:51;;;;;;;0.73;0.60;;;16.10;80.50;;;;;;5043705;28;20040;-77
2022/11/19 09:15:17;;;;;;;1.27;0.52;;;16.10;80.60;;;;;;5040425;28;20028;-77
2022/11/19 09:17:43;;;;;;;2.17;0.70;;;16.10;80.70;;;;;;5041079;28;20491;-77
2022/11/19 09:20:09;;;;;;;1.48;0.90;;;16.10;80.80;;;;;;5039865;28;20103;-77
2022/11/19 09:22:35;;;;;;;2.25;0.85;;;16.10;80.90;;;;;;5048806;28;20032;-77
2022/11/19 09:25:00;;;;;;;9.15;1.50;;;16.10;81.00;;;;;;5050062;28;20032;-77
2022/11/19 09:27:26;;;;;;;6.68;0.80;;;16.10;81.60;;;;;;5020967;28;20547;-74
2022/11/19 09:29:52;;;;;;;2.80;0.82;;;16.10;81.90;;;;;;5030199;28;20037;-73
2022/11/19 09:32:17;;;;;;;6.65;0.90;;;16.10;81.90;;;;;;5030132;28;20105;-75
2022/11/19 09:34:43;;;;;;;4.47;0.80;;;16.10;81.90;;;;;;5046476;28;20025;-76
2022/11/19 09:37:09;;;;;;;2.22;0.90;;;16.10;82.00;;;;;;5030688;28;20025;-75
2022/11/19 09:39:34;;;;;;;6.03;1.50;;;16.10;81.90;;;;;;5048441;28;20025;-76
2022/11/19 09:42:18;;;;;;;8.95;1.30;;;16.10;81.90;;;;;;5050840;28;20088;-76
2022/11/19 09:45:07;;;;;;;3.97;0.80;;;16.10;82.10;;;;;;5050214;28;20066;-78
2022/11/19 09:48:00;;;;;;;6.07;1.17;;;16.10;82.20;;;;;;5050362;28;20032;-74
2022/11/19 09:50:28;;;;;;;3.05;0.90;;;16.10;82.30;;;;;;5051768;28;20503;-78
2022/11/19 09:52:58;;;;;;;5.47;1.17;;;16.10;82.30;;;;;;5050025;28;20025;-78
2022/11/19 09:55:34;;;;;;;4.38;0.93;;;16.10;83.20;;;;;;5050226;28;20104;-79
2022/11/19 09:58:02;;;;;;;4.20;1.00;;;16.10;82.10;;;;;;5034006;28;20099;-74
2022/11/19 10:00:29;;;;;;;11.32;1.20;;;16.20;82.10;;;;;;5033930;28;20108;-77
2022/11/19 10:02:55;;;;;;;6.43;1.13;;;16.10;82.00;;;;;;5030761;28;20017;-77
2022/11/19 10:05:28;;;;;;;1.80;0.95;;;16.10;82.20;;;;;;5030987;28;20041;-78
2022/11/19 10:08:08;;;;;;;4.80;1.17;;;16.10;82.10;;;;;;5050070;28;20048;-78
2022/11/19 10:10:54;;;;;;;5.18;0.70;;;16.10;82.20;;;;;;5052367;28;20029;-78
2022/11/19 10:13:29;;;;;;;4.78;1.13;;;16.10;82.20;;;;;;5039084;28;20028;-78
2022/11/19 10:16:11;;;;;;;9.43;0.90;;;16.10;82.10;;;;;;5051295;28;20251;-78
2022/11/19 10:18:57;;;;;;;9.95;1.15;;;16.10;82.00;;;;;;5042181;28;20036;-76
2022/11/19 10:21:32;;;;;;;5.93;1.25;;;16.10;82.00;;;;;;5045531;28;20036;-71
2022/11/19 10:24:17;;;;;;;5.20;1.10;;;16.10;82.00;;;;;;5035045;28;20278;-72
2022/11/19 10:26:48;;;;;;;5.40;0.75;;;16.10;82.00;;;;;;5037500;28;20476;-72
2022/11/19 10:29:15;;;;;;;10.02;1.08;;;16.10;82.00;;;;;;5053697;28;20446;-73
2022/11/19 10:31:45;;;;;;;7.05;0.95;;;16.10;81.90;;;;;;5037018;28;20063;-72
2022/11/19 10:34:31;;;;;;;5.78;1.60;;;16.10;81.90;;;;;;5037129;28;20067;-73
2022/11/19 10:37:06;;;;;;;7.53;1.42;;;16.10;81.90;;;;;;5053443;28;20498;-72
2022/11/19 10:39:39;;;;;;;9.35;1.17;;;16.10;81.90;;;;;;5037093;28;20017;-72
2022/11/19 10:42:17;;;;;;;;;;;16.10;82.00;;;;;;5053725;28;20021;-72
2022/11/19 10:44:48;;;;;;;6.90;1.00;;;16.10;82.00;;;;;;5053124;28;19909;-73
2022/11/19 10:47:29;;;;;;;6.18;0.98;;;16.10;82.20;;;;;;5053416;28;20108;-72
2022/11/19 10:49:55;;;;;;;13.85;1.20;;;16.10;82.20;;;;;;5037140;28;20108;-72
2022/11/19 10:52:27;;;;;;;9.13;1.42;;;16.10;82.20;;;;;;5036533;28;20117;-72
2022/11/19 10:55:11;;;;;;;4.47;1.00;;;16.10;82.40;;;;;;5054188;28;20037;-72
2022/11/19 10:57:37;;;;;;;6.07;0.93;;;16.10;82.30;;;;;;5021655;28;20060;-72
2022/11/19 11:00:02;;;;;;;7.93;1.25;;;16.10;82.50;;;;;;5036557;28;20017;-72
2022/11/19 11:02:43;;;;;;;6.53;1.33;;;16.10;82.70;;;;;;5054381;28;20025;-72
2022/11/19 11:05:11;;;;;;;10.10;1.38;;;16.10;82.90;;;;;;5036814;28;20021;-73
2022/11/19 11:07:57;;;;;;;4.25;1.08;;;16.10;83.00;;;;;;5052814;28;20025;-72
2022/11/19 11:10:24;;;;;;;5.93;1.10;;;16.10;82.80;;;;;;5036334;28;20021;-72
2022/11/19 11:15:34;;;;;;;7.57;3.15;;;16.10;83.40;;;;;;5053007;28;20031;-72
2022/11/19 11:18:07;;;;;;;27.25;13.05;;;16.20;83.40;;;;;;5036105;28;20103;-72
2022/11/19 11:20:35;;;;;;;18.00;9.45;;;16.20;83.50;;;;;;5021522;28;20033;-75
2022/11/19 11:23:10;;;;;;;17.83;10.43;;;16.20;83.50;;;;;;5032639;28;20100;-73
2022/11/19 11:25:35;;;;;;;21.42;9.55;;;16.20;83.40;;;;;;5033681;28;20079;-74
2022/11/19 11:28:05;;;;;;;23.92;9.90;;;16.20;83.40;;;;;;5048667;28;20033;-69
2022/11/19 11:30:31;;;;;;;22.33;10.88;;;16.20;83.50;;;;;;5052308;28;20470;-72
2022/11/19 11:32:56;;;;;;;30.38;10.52;;;16.20;83.60;;;;;;5019088;28;20521;-71
2022/11/19 11:35:33;;;;;;;19.58;11.07;;;16.20;83.70;;;;;;5052414;28;20052;-72
2022/11/19 11:37:59;;;;;;;23.17;11.38;;;16.20;83.90;;;;;;5052239;28;20502;-73
2022/11/19 11:40:25;;;;;;;28.63;11.45;;;16.30;84.20;;;;;;5035474;28;20112;-71
2022/11/19 11:42:51;;;;;;;22.00;12.60;;;16.30;84.50;;;;;;5052093;28;20100;-73
2022/11/19 11:45:31;;;;;;;19.08;11.82;;;16.30;84.70;;;;;;5053460;28;20021;-71
2022/11/19 11:47:57;;;;;;;23.20;12.85;;;16.30;85.10;;;;;;5037177;28;20487;-71
2022/11/19 11:50:24;;;;;;;21.73;12.38;;;16.40;85.70;;;;;;5052178;28;20021;-72
2022/11/19 11:52:51;;;;;;;27.70;13.13;;;16.40;85.50;;;;;;5035388;28;20108;-71
2022/11/19 11:55:22;;;;;;;22.10;12.98;;;16.40;85.70;;;;;;5035248;28;20027;-72
2022/11/19 11:57:56;;;;;;;24.02;14.57;;;16.40;86.00;;;;;;5052842;28;20059;-71
2022/11/19 12:00:32;;;;;;;20.85;13.05;;;16.40;86.30;;;;;;5035586;28;20082;-72
2022/11/19 12:03:00;;;;;;;24.92;12.57;;;16.40;86.50;;;;;;5051620;28;20021;-71
2022/11/19 12:05:28;;;;;;;28.17;13.18;;;16.50;86.70;;;;;;5053111;28;20199;-77
2022/11/19 12:08:08;;;;;;;25.63;12.95;;;16.50;86.80;;;;;;5051511;28;20090;-72
2022/11/19 12:10:40;;;;;;;28.83;13.50;;;16.50;86.90;;;;;;5035678;28;20104;-72
2022/11/19 12:13:15;;;;;;;;;;;16.60;87.30;;;;;;5035857;28;20035;-72
2022/11/19 12:15:56;;;;;;;24.63;13.30;;;16.60;86.90;;;;;;5052898;28;19908;-72
2022/11/19 12:18:50;;;;;;;26.83;13.88;;;16.60;87.20;;;;;;5051670;28;20102;-72
2022/11/19 12:21:25;;;;;;;36.97;13.90;;;16.60;87.50;;;;;;5017739;28;20116;-70
2022/11/19 12:24:15;;;;;;;21.38;11.75;;;16.60;87.50;;;;;;5031293;28;20488;-72
2022/11/19 12:27:04;;;;;;;29.20;12.95;;;16.70;87.70;;;;;;5037871;28;20017;-71
2022/11/19 12:29:45;;;;;;;20.77;12.07;;;16.70;87.70;;;;;;5052637;28;20032;-74
2022/11/19 12:32:45;;;;;;;23.77;12.35;;;16.70;87.70;;;;;;5052036;28;20108;-74
2022/11/19 12:35:29;;;;;;;25.52;12.57;;;16.70;87.60;;;;;;5051352;28;20100;-77
2022/11/19 12:38:12;;;;;;;23.98;12.40;;;16.80;87.70;;;;;;5051147;28;20495;-72
2022/11/19 12:40:41;;;;;;;20.65;11.68;;;16.70;87.60;;;;;;5052343;28;20075;-73
2022/11/19 12:43:09;;;;;;;22.40;11.30;;;16.80;87.60;;;;;;5051151;28;20056;-72
2022/11/19 12:45:56;;;;;;;19.20;10.57;;;16.70;87.50;;;;;;5052647;28;20021;-72
2022/11/19 12:48:31;;;;;;;24.92;11.10;;;16.80;87.60;;;;;;5051101;28;20028;-72
2022/11/19 12:51:17;;;;;;;17.83;10.50;;;16.80;87.50;;;;;;5052308;28;20033;-76
2022/11/19 12:54:03;;;;;;;19.50;10.45;;;16.80;87.40;;;;;;5051998;28;20108;-70
2022/11/19 12:56:47;;;;;;;17.02;10.18;;;16.80;87.30;;;;;;5051194;28;20556;-72
2022/11/19 12:59:25;;;;;;;14.55;9.75;;;16.80;87.30;;;;;;5052066;28;20048;-72
2022/11/19 13:01:52;;;;;;;17.88;9.60;;;16.80;87.40;;;;;;5051137;28;20017;-73
2022/11/19 13:04:31;;;;;;;16.13;9.73;;;16.80;87.30;;;;;;5034438;28;20025;-71
2022/11/19 13:06:59;;;;;;;19.52;8.68;;;16.80;87.30;;;;;;5050672;28;20479;-71
2022/11/19 13:09:32;;;;;;;16.77;8.55;;;16.80;87.20;;;;;;5050877;28;20037;-72
2022/11/19 13:12:04;;;;;;;17.73;8.90;;;16.80;87.20;;;;;;5051023;28;20070;-71
2022/11/19 13:14:41;;;;;;;14.75;8.45;;;16.80;87.10;;;;;;5034519;28;20025;-74
2022/11/19 13:17:18;;;;;;;13.88;8.73;;;16.80;87.00;;;;;;5050949;28;20110;-72